sensor_id;sensor_type;location;lat;lon;timestamp;temperature;humidity
913;DHT22;443;51.448;7.028;2023-12-20T00:00:29;13.60;80.20
913;DHT22;443;51.448;7.028;2023-12-20T00:02:55;13.70;80.10
913;DHT22;443;51.448;7.028;2023-12-20T00:05:22;13.50;79.40
913;DHT22;443;51.448;7.028;2023-12-20T00:07:49;13.40;79.70
913;DHT22;443;51.448;7.028;2023-12-20T00:10:17;13.40;79.70
913;DHT22;443;51.448;7.028;2023-12-20T00:12:44;13.40;80.20
913;DHT22;443;51.448;7.028;2023-12-20T00:15:11;13.40;80.70
913;DHT22;443;51.448;7.028;2023-12-20T00:17:38;13.50;80.50
913;DHT22;443;51.448;7.028;2023-12-20T00:20:06;13.70;80.60
913;DHT22;443;51.448;7.028;2023-12-20T00:22:33;13.60;79.80
913;DHT22;443;51.448;7.028;2023-12-20T00:24:59;13.50;79.70
913;DHT22;443;51.448;7.028;2023-12-20T00:27:27;13.40;79.70
913;DHT22;443;51.448;7.028;2023-12-20T00:29:55;13.40;79.80
913;DHT22;443;51.448;7.028;2023-12-20T00:32:22;13.50;80.40
913;DHT22;443;51.448;7.028;2023-12-20T00:34:48;13.50;80.40
913;DHT22;443;51.448;7.028;2023-12-20T00:37:15;13.50;80.20
913;DHT22;443;51.448;7.028;2023-12-20T00:39:42;13.50;79.70
913;DHT22;443;51.448;7.028;2023-12-20T00:42:09;13.50;80.60
913;DHT22;443;51.448;7.028;2023-12-20T00:44:37;13.50;80.30
913;DHT22;443;51.448;7.028;2023-12-20T00:47:04;13.40;80.10
913;DHT22;443;51.448;7.028;2023-12-20T00:49:31;13.40;80.40
913;DHT22;443;51.448;7.028;2023-12-20T00:51:57;13.40;79.60
913;DHT22;443;51.448;7.028;2023-12-20T00:54:24;13.50;80.50
913;DHT22;443;51.448;7.028;2023-12-20T00:56:51;13.50;80.40
913;DHT22;443;51.448;7.028;2023-12-20T00:59:18;13.30;79.10
913;DHT22;443;51.448;7.028;2023-12-20T01:01:46;13.30;80.70
913;DHT22;443;51.448;7.028;2023-12-20T01:04:13;13.40;80.70
913;DHT22;443;51.448;7.028;2023-12-20T01:06:40;13.40;79.70
913;DHT22;443;51.448;7.028;2023-12-20T01:09:08;13.50;80.60
913;DHT22;443;51.448;7.028;2023-12-20T01:11:34;13.60;79.60
913;DHT22;443;51.448;7.028;2023-12-20T01:14:01;13.50;79.60
913;DHT22;443;51.448;7.028;2023-12-20T01:16:28;13.40;79.40
913;DHT22;443;51.448;7.028;2023-12-20T01:18:56;13.30;78.70
913;DHT22;443;51.448;7.028;2023-12-20T01:21:23;13.30;80.10
913;DHT22;443;51.448;7.028;2023-12-20T01:23:50;13.30;80.10
913;DHT22;443;51.448;7.028;2023-12-20T01:26:16;13.20;80.10
913;DHT22;443;51.448;7.028;2023-12-20T01:28:43;13.20;80.30
913;DHT22;443;51.448;7.028;2023-12-20T01:31:10;13.10;79.90
913;DHT22;443;51.448;7.028;2023-12-20T01:33:37;13.10;79.80
913;DHT22;443;51.448;7.028;2023-12-20T01:36:05;13.10;80.30
913;DHT22;443;51.448;7.028;2023-12-20T01:38:32;13.20;80.50
913;DHT22;443;51.448;7.028;2023-12-20T01:40:59;13.30;79.70
913;DHT22;443;51.448;7.028;2023-12-20T01:43:26;13.20;79.00
913;DHT22;443;51.448;7.028;2023-12-20T01:45:53;13.20;79.40
913;DHT22;443;51.448;7.028;2023-12-20T01:48:21;13.20;79.50
913;DHT22;443;51.448;7.028;2023-12-20T01:50:49;13.10;80.10
913;DHT22;443;51.448;7.028;2023-12-20T01:53:19;13.10;79.40
913;DHT22;443;51.448;7.028;2023-12-20T01:55:48;13.10;81.30
913;DHT22;443;51.448;7.028;2023-12-20T01:58:17;13.30;80.70
913;DHT22;443;51.448;7.028;2023-12-20T02:00:44;13.30;80.10
913;DHT22;443;51.448;7.028;2023-12-20T02:03:11;13.30;80.20
913;DHT22;443;51.448;7.028;2023-12-20T02:05:39;13.30;80.50
913;DHT22;443;51.448;7.028;2023-12-20T02:08:06;13.30;80.40
913;DHT22;443;51.448;7.028;2023-12-20T02:10:35;13.30;80.00
913;DHT22;443;51.448;7.028;2023-12-20T02:13:01;13.20;80.40
913;DHT22;443;51.448;7.028;2023-12-20T02:15:28;13.20;79.70
913;DHT22;443;51.448;7.028;2023-12-20T02:17:55;13.30;80.80
913;DHT22;443;51.448;7.028;2023-12-20T02:20:22;13.20;79.40
913;DHT22;443;51.448;7.028;2023-12-20T02:22:50;13.20;79.70
913;DHT22;443;51.448;7.028;2023-12-20T02:25:17;13.30;80.70
913;DHT22;443;51.448;7.028;2023-12-20T02:27:43;13.20;80.00
913;DHT22;443;51.448;7.028;2023-12-20T02:30:10;13.20;79.70
913;DHT22;443;51.448;7.028;2023-12-20T02:32:37;13.10;79.40
913;DHT22;443;51.448;7.028;2023-12-20T02:35:05;13.10;81.00
913;DHT22;443;51.448;7.028;2023-12-20T02:37:32;13.20;80.50
913;DHT22;443;51.448;7.028;2023-12-20T02:40:00;13.20;80.80
913;DHT22;443;51.448;7.028;2023-12-20T02:42:28;13.30;80.80
913;DHT22;443;51.448;7.028;2023-12-20T02:44:55;13.10;79.30
913;DHT22;443;51.448;7.028;2023-12-20T02:47:21;13.10;80.50
913;DHT22;443;51.448;7.028;2023-12-20T02:49:48;13.20;79.90
913;DHT22;443;51.448;7.028;2023-12-20T02:52:15;13.10;80.20
913;DHT22;443;51.448;7.028;2023-12-20T02:54:42;13.20;79.70
913;DHT22;443;51.448;7.028;2023-12-20T02:57:10;13.00;78.90
913;DHT22;443;51.448;7.028;2023-12-20T02:59:37;12.90;79.70
913;DHT22;443;51.448;7.028;2023-12-20T03:02:03;13.00;81.40
913;DHT22;443;51.448;7.028;2023-12-20T03:04:30;12.80;78.00
913;DHT22;443;51.448;7.028;2023-12-20T03:06:57;12.90;79.70
913;DHT22;443;51.448;7.028;2023-12-20T03:09:23;12.70;78.70
913;DHT22;443;51.448;7.028;2023-12-20T03:11:50;12.70;80.00
913;DHT22;443;51.448;7.028;2023-12-20T03:14:19;12.90;81.20
913;DHT22;443;51.448;7.028;2023-12-20T03:16:47;12.90;80.80
913;DHT22;443;51.448;7.028;2023-12-20T03:19:14;12.90;80.10
913;DHT22;443;51.448;7.028;2023-12-20T03:21:41;12.80;79.70
913;DHT22;443;51.448;7.028;2023-12-20T03:24:08;12.80;80.40
913;DHT22;443;51.448;7.028;2023-12-20T03:26:34;12.80;79.60
913;DHT22;443;51.448;7.028;2023-12-20T03:29:01;13.00;81.10
913;DHT22;443;51.448;7.028;2023-12-20T03:31:29;12.80;79.50
913;DHT22;443;51.448;7.028;2023-12-20T03:33:56;12.70;79.50
913;DHT22;443;51.448;7.028;2023-12-20T03:36:23;12.70;80.80
913;DHT22;443;51.448;7.028;2023-12-20T03:38:49;12.90;81.20
913;DHT22;443;51.448;7.028;2023-12-20T03:41:16;12.90;80.80
913;DHT22;443;51.448;7.028;2023-12-20T03:43:43;13.00;80.10
913;DHT22;443;51.448;7.028;2023-12-20T03:46:09;12.80;79.60
913;DHT22;443;51.448;7.028;2023-12-20T03:48:37;12.80;80.40
913;DHT22;443;51.448;7.028;2023-12-20T03:51:04;12.90;80.90
913;DHT22;443;51.448;7.028;2023-12-20T03:53:31;12.90;81.20
913;DHT22;443;51.448;7.028;2023-12-20T03:55:58;12.70;78.30
913;DHT22;443;51.448;7.028;2023-12-20T03:58:25;12.60;79.30
913;DHT22;443;51.448;7.028;2023-12-20T04:00:52;12.60;79.80
913;DHT22;443;51.448;7.028;2023-12-20T04:03:19;12.80;81.10
913;DHT22;443;51.448;7.028;2023-12-20T04:05:47;12.70;79.20
913;DHT22;443;51.448;7.028;2023-12-20T04:08:13;12.70;81.00
913;DHT22;443;51.448;7.028;2023-12-20T04:10:40;12.60;80.40
913;DHT22;443;51.448;7.028;2023-12-20T04:13:07;12.60;81.50
913;DHT22;443;51.448;7.028;2023-12-20T04:15:34;12.70;81.70
913;DHT22;443;51.448;7.028;2023-12-20T04:18:00;12.80;80.60
913;DHT22;443;51.448;7.028;2023-12-20T04:20:27;12.70;79.80
913;DHT22;443;51.448;7.028;2023-12-20T04:22:55;12.60;80.40
913;DHT22;443;51.448;7.028;2023-12-20T04:25:22;12.50;80.50
913;DHT22;443;51.448;7.028;2023-12-20T04:27:49;12.50;80.60
913;DHT22;443;51.448;7.028;2023-12-20T04:30:15;12.60;81.80
913;DHT22;443;51.448;7.028;2023-12-20T04:32:42;12.50;81.10
913;DHT22;443;51.448;7.028;2023-12-20T04:35:09;12.40;79.40
913;DHT22;443;51.448;7.028;2023-12-20T04:37:36;12.50;80.20
913;DHT22;443;51.448;7.028;2023-12-20T04:40:05;12.50;81.70
913;DHT22;443;51.448;7.028;2023-12-20T04:42:33;12.40;79.80
913;DHT22;443;51.448;7.028;2023-12-20T04:44:59;12.50;81.20
913;DHT22;443;51.448;7.028;2023-12-20T04:47:26;12.60;80.60
913;DHT22;443;51.448;7.028;2023-12-20T04:49:53;12.40;78.40
913;DHT22;443;51.448;7.028;2023-12-20T04:52:19;12.30;79.70
913;DHT22;443;51.448;7.028;2023-12-20T04:54:46;12.40;81.70
913;DHT22;443;51.448;7.028;2023-12-20T04:57:14;12.30;79.50
913;DHT22;443;51.448;7.028;2023-12-20T04:59:41;12.30;81.30
913;DHT22;443;51.448;7.028;2023-12-20T05:02:07;12.40;80.80
913;DHT22;443;51.448;7.028;2023-12-20T05:04:33;12.50;81.90
913;DHT22;443;51.448;7.028;2023-12-20T05:07:00;12.40;80.50
913;DHT22;443;51.448;7.028;2023-12-20T05:09:27;12.40;79.50
913;DHT22;443;51.448;7.028;2023-12-20T05:11:54;12.50;81.20
913;DHT22;443;51.448;7.028;2023-12-20T05:14:22;12.40;79.50
913;DHT22;443;51.448;7.028;2023-12-20T05:16:48;12.50;81.50
913;DHT22;443;51.448;7.028;2023-12-20T05:19:15;12.50;79.40
913;DHT22;443;51.448;7.028;2023-12-20T05:21:42;12.60;81.40
913;DHT22;443;51.448;7.028;2023-12-20T05:24:08;12.50;78.70
913;DHT22;443;51.448;7.028;2023-12-20T05:26:35;12.60;81.60
913;DHT22;443;51.448;7.028;2023-12-20T05:29:02;12.40;80.10
913;DHT22;443;51.448;7.028;2023-12-20T05:31:31;12.30;79.30
913;DHT22;443;51.448;7.028;2023-12-20T05:33:57;12.60;82.50
913;DHT22;443;51.448;7.028;2023-12-20T05:36:24;12.60;80.60
913;DHT22;443;51.448;7.028;2023-12-20T05:38:51;12.70;80.90
913;DHT22;443;51.448;7.028;2023-12-20T05:41:18;12.50;79.50
913;DHT22;443;51.448;7.028;2023-12-20T05:43:47;12.40;80.70
913;DHT22;443;51.448;7.028;2023-12-20T05:46:13;12.50;81.00
913;DHT22;443;51.448;7.028;2023-12-20T05:48:42;12.40;79.80
913;DHT22;443;51.448;7.028;2023-12-20T05:51:11;12.40;80.20
913;DHT22;443;51.448;7.028;2023-12-20T05:53:38;12.50;79.40
913;DHT22;443;51.448;7.028;2023-12-20T05:56:07;12.40;80.30
913;DHT22;443;51.448;7.028;2023-12-20T05:58:34;12.60;81.20
913;DHT22;443;51.448;7.028;2023-12-20T06:01:00;12.50;79.40
913;DHT22;443;51.448;7.028;2023-12-20T06:03:27;12.50;80.10
913;DHT22;443;51.448;7.028;2023-12-20T06:05:55;12.60;81.20
913;DHT22;443;51.448;7.028;2023-12-20T06:08:22;12.60;80.80
913;DHT22;443;51.448;7.028;2023-12-20T06:10:49;12.40;79.50
913;DHT22;443;51.448;7.028;2023-12-20T06:13:16;12.70;80.60
913;DHT22;443;51.448;7.028;2023-12-20T06:15:42;12.50;79.40
913;DHT22;443;51.448;7.028;2023-12-20T06:18:09;12.70;81.40
913;DHT22;443;51.448;7.028;2023-12-20T06:20:36;12.70;81.00
913;DHT22;443;51.448;7.028;2023-12-20T06:23:04;12.70;80.60
913;DHT22;443;51.448;7.028;2023-12-20T06:25:31;12.60;80.80
913;DHT22;443;51.448;7.028;2023-12-20T06:27:58;12.70;80.20
913;DHT22;443;51.448;7.028;2023-12-20T06:30:24;12.60;80.60
913;DHT22;443;51.448;7.028;2023-12-20T06:32:53;12.50;80.30
913;DHT22;443;51.448;7.028;2023-12-20T06:35:20;12.30;80.20
913;DHT22;443;51.448;7.028;2023-12-20T06:37:46;12.20;79.30
913;DHT22;443;51.448;7.028;2023-12-20T06:40:14;12.30;80.70
913;DHT22;443;51.448;7.028;2023-12-20T06:42:41;12.30;79.00
913;DHT22;443;51.448;7.028;2023-12-20T06:45:09;12.20;79.60
913;DHT22;443;51.448;7.028;2023-12-20T06:47:36;12.10;81.30
913;DHT22;443;51.448;7.028;2023-12-20T06:50:03;12.10;80.10
913;DHT22;443;51.448;7.028;2023-12-20T06:52:30;12.30;81.40
913;DHT22;443;51.448;7.028;2023-12-20T06:54:57;12.40;81.90
913;DHT22;443;51.448;7.028;2023-12-20T06:57:25;12.30;80.60
913;DHT22;443;51.448;7.028;2023-12-20T06:59:52;12.30;81.60
913;DHT22;443;51.448;7.028;2023-12-20T07:02:18;12.20;79.60
913;DHT22;443;51.448;7.028;2023-12-20T07:04:46;12.30;79.90
913;DHT22;443;51.448;7.028;2023-12-20T07:07:13;12.40;81.70
913;DHT22;443;51.448;7.028;2023-12-20T07:09:40;12.30;79.40
913;DHT22;443;51.448;7.028;2023-12-20T07:12:08;12.30;81.40
913;DHT22;443;51.448;7.028;2023-12-20T07:14:36;12.30;80.30
913;DHT22;443;51.448;7.028;2023-12-20T07:17:03;12.20;81.20
913;DHT22;443;51.448;7.028;2023-12-20T07:19:29;12.10;80.50
913;DHT22;443;51.448;7.028;2023-12-20T07:21:57;12.10;80.50
913;DHT22;443;51.448;7.028;2023-12-20T07:24:24;12.00;79.30
913;DHT22;443;51.448;7.028;2023-12-20T07:26:50;12.10;79.80
913;DHT22;443;51.448;7.028;2023-12-20T07:29:17;12.10;81.50
913;DHT22;443;51.448;7.028;2023-12-20T07:31:45;12.20;80.10
913;DHT22;443;51.448;7.028;2023-12-20T07:34:12;12.20;81.30
913;DHT22;443;51.448;7.028;2023-12-20T07:36:39;12.20;80.70
913;DHT22;443;51.448;7.028;2023-12-20T07:39:05;12.10;80.40
913;DHT22;443;51.448;7.028;2023-12-20T07:41:33;12.20;81.70
913;DHT22;443;51.448;7.028;2023-12-20T07:43:59;12.30;81.50
913;DHT22;443;51.448;7.028;2023-12-20T07:46:26;12.30;80.60
913;DHT22;443;51.448;7.028;2023-12-20T07:48:54;12.30;81.50
913;DHT22;443;51.448;7.028;2023-12-20T07:51:21;12.40;81.60
913;DHT22;443;51.448;7.028;2023-12-20T07:53:48;12.20;80.10
913;DHT22;443;51.448;7.028;2023-12-20T07:56:15;12.30;81.30
913;DHT22;443;51.448;7.028;2023-12-20T07:58:42;12.20;80.70
913;DHT22;443;51.448;7.028;2023-12-20T08:01:09;12.30;82.20
913;DHT22;443;51.448;7.028;2023-12-20T08:03:35;12.30;81.90
913;DHT22;443;51.448;7.028;2023-12-20T08:06:04;12.40;82.20
913;DHT22;443;51.448;7.028;2023-12-20T08:08:31;12.30;79.70
913;DHT22;443;51.448;7.028;2023-12-20T08:10:57;12.30;80.40
913;DHT22;443;51.448;7.028;2023-12-20T08:13:25;12.20;81.00
913;DHT22;443;51.448;7.028;2023-12-20T08:15:53;12.20;81.10
913;DHT22;443;51.448;7.028;2023-12-20T08:18:21;12.30;81.50
913;DHT22;443;51.448;7.028;2023-12-20T08:20:48;12.40;80.40
913;DHT22;443;51.448;7.028;2023-12-20T08:23:16;12.40;80.40
913;DHT22;443;51.448;7.028;2023-12-20T08:25:43;12.30;80.70
913;DHT22;443;51.448;7.028;2023-12-20T08:28:10;12.40;79.40
913;DHT22;443;51.448;7.028;2023-12-20T08:30:36;12.20;79.90
913;DHT22;443;51.448;7.028;2023-12-20T08:33:04;12.40;80.30
913;DHT22;443;51.448;7.028;2023-12-20T08:35:30;12.40;79.80
913;DHT22;443;51.448;7.028;2023-12-20T08:37:57;12.30;80.20
913;DHT22;443;51.448;7.028;2023-12-20T08:40:25;12.40;80.50
913;DHT22;443;51.448;7.028;2023-12-20T08:42:52;12.40;81.00
913;DHT22;443;51.448;7.028;2023-12-20T08:45:18;12.30;78.40
913;DHT22;443;51.448;7.028;2023-12-20T08:47:45;12.40;80.80
913;DHT22;443;51.448;7.028;2023-12-20T08:50:12;12.30;79.90
913;DHT22;443;51.448;7.028;2023-12-20T08:52:40;12.40;80.80
913;DHT22;443;51.448;7.028;2023-12-20T08:55:08;12.50;81.60
913;DHT22;443;51.448;7.028;2023-12-20T08:57:36;12.40;81.90
913;DHT22;443;51.448;7.028;2023-12-20T09:00:04;12.30;80.00
913;DHT22;443;51.448;7.028;2023-12-20T09:02:32;12.20;79.40
913;DHT22;443;51.448;7.028;2023-12-20T09:05:01;12.30;80.80
913;DHT22;443;51.448;7.028;2023-12-20T09:07:28;12.20;79.10
913;DHT22;443;51.448;7.028;2023-12-20T09:09:56;12.40;80.40
913;DHT22;443;51.448;7.028;2023-12-20T09:12:23;12.40;81.00
913;DHT22;443;51.448;7.028;2023-12-20T09:14:51;12.40;80.60
913;DHT22;443;51.448;7.028;2023-12-20T09:17:18;12.70;82.50
913;DHT22;443;51.448;7.028;2023-12-20T09:19:46;12.60;81.00
913;DHT22;443;51.448;7.028;2023-12-20T09:22:12;12.50;79.00
913;DHT22;443;51.448;7.028;2023-12-20T09:24:39;12.50;80.50
913;DHT22;443;51.448;7.028;2023-12-20T09:27:06;12.40;80.00
913;DHT22;443;51.448;7.028;2023-12-20T09:29:33;12.50;81.30
913;DHT22;443;51.448;7.028;2023-12-20T09:32:01;12.50;79.40
913;DHT22;443;51.448;7.028;2023-12-20T09:34:28;12.70;81.90
913;DHT22;443;51.448;7.028;2023-12-20T09:36:55;12.70;81.70
913;DHT22;443;51.448;7.028;2023-12-20T09:39:21;12.60;80.20
913;DHT22;443;51.448;7.028;2023-12-20T09:41:56;12.50;79.00
913;DHT22;443;51.448;7.028;2023-12-20T09:44:26;12.50;79.70
913;DHT22;443;51.448;7.028;2023-12-20T09:46:53;12.40;80.40
913;DHT22;443;51.448;7.028;2023-12-20T09:49:22;12.30;78.80
913;DHT22;443;51.448;7.028;2023-12-20T09:51:50;12.30;80.40
913;DHT22;443;51.448;7.028;2023-12-20T09:54:18;12.30;79.50
913;DHT22;443;51.448;7.028;2023-12-20T09:56:45;12.40;81.50
913;DHT22;443;51.448;7.028;2023-12-20T09:59:12;12.30;79.70
913;DHT22;443;51.448;7.028;2023-12-20T10:01:40;12.30;80.60
913;DHT22;443;51.448;7.028;2023-12-20T10:04:08;12.30;79.70
913;DHT22;443;51.448;7.028;2023-12-20T10:06:39;12.40;81.50
913;DHT22;443;51.448;7.028;2023-12-20T10:09:06;12.60;80.50
913;DHT22;443;51.448;7.028;2023-12-20T10:11:35;12.70;81.10
913;DHT22;443;51.448;7.028;2023-12-20T10:14:03;12.60;80.20
913;DHT22;443;51.448;7.028;2023-12-20T10:16:30;12.50;79.80
913;DHT22;443;51.448;7.028;2023-12-20T10:18:58;12.60;81.30
913;DHT22;443;51.448;7.028;2023-12-20T10:21:25;12.60;79.40
913;DHT22;443;51.448;7.028;2023-12-20T10:23:54;12.50;79.20
913;DHT22;443;51.448;7.028;2023-12-20T10:26:21;12.60;80.50
913;DHT22;443;51.448;7.028;2023-12-20T10:28:50;12.60;80.70
913;DHT22;443;51.448;7.028;2023-12-20T10:31:26;12.50;79.50
913;DHT22;443;51.448;7.028;2023-12-20T10:33:53;12.60;81.00
913;DHT22;443;51.448;7.028;2023-12-20T10:36:20;12.50;79.10
913;DHT22;443;51.448;7.028;2023-12-20T10:38:48;12.50;79.20
913;DHT22;443;51.448;7.028;2023-12-20T10:41:22;12.50;78.30
913;DHT22;443;51.448;7.028;2023-12-20T10:43:51;12.50;81.80
913;DHT22;443;51.448;7.028;2023-12-20T10:46:19;12.50;79.30
913;DHT22;443;51.448;7.028;2023-12-20T10:48:47;12.50;80.00
913;DHT22;443;51.448;7.028;2023-12-20T10:51:17;12.60;79.70
913;DHT22;443;51.448;7.028;2023-12-20T10:53:47;12.50;79.50
913;DHT22;443;51.448;7.028;2023-12-20T10:56:16;12.50;78.60
913;DHT22;443;51.448;7.028;2023-12-20T10:58:45;12.30;78.80
913;DHT22;443;51.448;7.028;2023-12-20T11:01:13;12.50;80.20
913;DHT22;443;51.448;7.028;2023-12-20T11:03:44;12.50;80.40
913;DHT22;443;51.448;7.028;2023-12-20T11:09:10;12.50;80.40
913;DHT22;443;51.448;7.028;2023-12-20T11:14:40;12.50;79.90
913;DHT22;443;51.448;7.028;2023-12-20T11:17:09;12.40;78.80
913;DHT22;443;51.448;7.028;2023-12-20T11:20:04;12.50;79.80
913;DHT22;443;51.448;7.028;2023-12-20T11:22:31;12.50;79.00
913;DHT22;443;51.448;7.028;2023-12-20T11:25:04;12.50;79.20
913;DHT22;443;51.448;7.028;2023-12-20T11:27:33;12.60;81.10
913;DHT22;443;51.448;7.028;2023-12-20T11:30:03;12.40;79.30
913;DHT22;443;51.448;7.028;2023-12-20T11:32:34;12.50;79.10
913;DHT22;443;51.448;7.028;2023-12-20T11:35:01;12.60;81.20
913;DHT22;443;51.448;7.028;2023-12-20T11:37:42;12.50;80.30
913;DHT22;443;51.448;7.028;2023-12-20T11:40:13;12.50;81.30
913;DHT22;443;51.448;7.028;2023-12-20T11:42:42;12.70;82.10
913;DHT22;443;51.448;7.028;2023-12-20T11:45:10;12.70;79.80
913;DHT22;443;51.448;7.028;2023-12-20T11:47:40;12.70;80.80
913;DHT22;443;51.448;7.028;2023-12-20T11:50:07;12.70;81.00
913;DHT22;443;51.448;7.028;2023-12-20T11:52:35;12.90;81.70
913;DHT22;443;51.448;7.028;2023-12-20T11:55:01;12.70;78.70
913;DHT22;443;51.448;7.028;2023-12-20T11:57:29;12.60;78.20
913;DHT22;443;51.448;7.028;2023-12-20T11:59:56;12.50;79.80
913;DHT22;443;51.448;7.028;2023-12-20T12:02:24;12.70;80.60
913;DHT22;443;51.448;7.028;2023-12-20T12:04:51;12.60;79.40
913;DHT22;443;51.448;7.028;2023-12-20T12:07:18;12.50;79.10
913;DHT22;443;51.448;7.028;2023-12-20T12:09:45;12.60;80.00
913;DHT22;443;51.448;7.028;2023-12-20T12:12:13;12.60;80.80
913;DHT22;443;51.448;7.028;2023-12-20T12:14:40;12.70;80.70
913;DHT22;443;51.448;7.028;2023-12-20T12:17:10;12.60;80.20
913;DHT22;443;51.448;7.028;2023-12-20T12:19:39;12.60;81.20
913;DHT22;443;51.448;7.028;2023-12-20T12:22:06;12.80;80.50
913;DHT22;443;51.448;7.028;2023-12-20T12:24:35;12.70;79.50
913;DHT22;443;51.448;7.028;2023-12-20T12:27:03;12.60;80.10
913;DHT22;443;51.448;7.028;2023-12-20T12:29:30;12.70;80.70
913;DHT22;443;51.448;7.028;2023-12-20T12:31:57;12.60;79.30
913;DHT22;443;51.448;7.028;2023-12-20T12:34:23;12.60;79.60
913;DHT22;443;51.448;7.028;2023-12-20T12:36:53;12.50;80.00
913;DHT22;443;51.448;7.028;2023-12-20T12:39:20;12.60;80.80
913;DHT22;443;51.448;7.028;2023-12-20T12:41:46;12.60;79.40
913;DHT22;443;51.448;7.028;2023-12-20T12:44:13;12.50;79.50
913;DHT22;443;51.448;7.028;2023-12-20T12:46:40;12.50;80.10
913;DHT22;443;51.448;7.028;2023-12-20T12:49:07;12.60;80.90
913;DHT22;443;51.448;7.028;2023-12-20T12:51:34;12.50;79.70
913;DHT22;443;51.448;7.028;2023-12-20T12:54:02;12.50;79.60
913;DHT22;443;51.448;7.028;2023-12-20T12:56:29;12.70;80.80
913;DHT22;443;51.448;7.028;2023-12-20T12:58:56;12.70;80.80
913;DHT22;443;51.448;7.028;2023-12-20T13:01:23;12.60;78.50
913;DHT22;443;51.448;7.028;2023-12-20T13:03:49;12.70;79.30
913;DHT22;443;51.448;7.028;2023-12-20T13:06:16;12.70;80.40
913;DHT22;443;51.448;7.028;2023-12-20T13:08:43;12.90;80.30
913;DHT22;443;51.448;7.028;2023-12-20T13:11:12;12.80;79.60
913;DHT22;443;51.448;7.028;2023-12-20T13:13:39;12.60;77.70
913;DHT22;443;51.448;7.028;2023-12-20T13:16:06;12.80;81.50
913;DHT22;443;51.448;7.028;2023-12-20T13:18:33;12.90;80.90
913;DHT22;443;51.448;7.028;2023-12-20T13:20:59;12.70;79.80
913;DHT22;443;51.448;7.028;2023-12-20T13:23:26;12.70;80.10
913;DHT22;443;51.448;7.028;2023-12-20T13:25:53;12.70;79.80
913;DHT22;443;51.448;7.028;2023-12-20T13:28:21;12.70;80.80
913;DHT22;443;51.448;7.028;2023-12-20T13:30:48;12.80;80.70
913;DHT22;443;51.448;7.028;2023-12-20T13:33:14;12.70;79.80
913;DHT22;443;51.448;7.028;2023-12-20T13:35:41;12.60;80.10
913;DHT22;443;51.448;7.028;2023-12-20T13:38:08;12.60;79.80
913;DHT22;443;51.448;7.028;2023-12-20T13:40:35;12.70;81.70
913;DHT22;443;51.448;7.028;2023-12-20T13:43:02;12.70;80.00
913;DHT22;443;51.448;7.028;2023-12-20T13:45:30;12.70;81.10
913;DHT22;443;51.448;7.028;2023-12-20T13:47:58;12.80;81.20
913;DHT22;443;51.448;7.028;2023-12-20T13:50:25;12.70;80.90
913;DHT22;443;51.448;7.028;2023-12-20T13:52:52;12.60;80.20
913;DHT22;443;51.448;7.028;2023-12-20T13:55:19;12.70;81.20
913;DHT22;443;51.448;7.028;2023-12-20T13:57:47;12.80;81.50
913;DHT22;443;51.448;7.028;2023-12-20T14:00:15;12.80;80.80
913;DHT22;443;51.448;7.028;2023-12-20T14:02:43;12.60;80.20
913;DHT22;443;51.448;7.028;2023-12-20T14:05:10;12.60;80.50
913;DHT22;443;51.448;7.028;2023-12-20T14:07:36;12.40;79.50
913;DHT22;443;51.448;7.028;2023-12-20T14:10:03;12.50;81.10
913;DHT22;443;51.448;7.028;2023-12-20T14:12:31;12.50;80.90
913;DHT22;443;51.448;7.028;2023-12-20T14:15:01;12.50;81.40
913;DHT22;443;51.448;7.028;2023-12-20T14:17:27;12.50;80.70
913;DHT22;443;51.448;7.028;2023-12-20T14:19:56;12.50;81.40
913;DHT22;443;51.448;7.028;2023-12-20T14:22:22;12.60;81.20
913;DHT22;443;51.448;7.028;2023-12-20T14:24:50;12.50;80.80
913;DHT22;443;51.448;7.028;2023-12-20T14:27:17;12.70;81.00
913;DHT22;443;51.448;7.028;2023-12-20T14:29:46;12.60;80.90
913;DHT22;443;51.448;7.028;2023-12-20T14:32:13;12.50;80.50
913;DHT22;443;51.448;7.028;2023-12-20T14:34:41;12.40;81.00
913;DHT22;443;51.448;7.028;2023-12-20T14:37:09;12.40;81.20
913;DHT22;443;51.448;7.028;2023-12-20T14:39:36;12.60;82.60
913;DHT22;443;51.448;7.028;2023-12-20T14:42:05;12.70;81.90
913;DHT22;443;51.448;7.028;2023-12-20T14:44:32;12.60;81.70
913;DHT22;443;51.448;7.028;2023-12-20T14:46:59;12.60;81.20
913;DHT22;443;51.448;7.028;2023-12-20T14:49:27;12.60;80.80
913;DHT22;443;51.448;7.028;2023-12-20T14:51:54;12.60;81.20
913;DHT22;443;51.448;7.028;2023-12-20T14:54:22;12.70;81.30
913;DHT22;443;51.448;7.028;2023-12-20T14:56:49;12.60;81.10
913;DHT22;443;51.448;7.028;2023-12-20T14:59:16;12.70;81.10
913;DHT22;443;51.448;7.028;2023-12-20T15:01:43;12.60;81.60
913;DHT22;443;51.448;7.028;2023-12-20T15:04:10;12.50;80.40
913;DHT22;443;51.448;7.028;2023-12-20T15:06:37;12.70;81.70
913;DHT22;443;51.448;7.028;2023-12-20T15:09:04;12.70;80.40
913;DHT22;443;51.448;7.028;2023-12-20T15:11:32;12.50;80.40
913;DHT22;443;51.448;7.028;2023-12-20T15:14:00;12.40;80.50
913;DHT22;443;51.448;7.028;2023-12-20T15:16:26;12.70;82.00
913;DHT22;443;51.448;7.028;2023-12-20T15:18:54;12.70;80.80
913;DHT22;443;51.448;7.028;2023-12-20T15:21:21;12.80;80.70
913;DHT22;443;51.448;7.028;2023-12-20T15:23:55;12.70;80.60
913;DHT22;443;51.448;7.028;2023-12-20T15:26:32;12.80;81.80
913;DHT22;443;51.448;7.028;2023-12-20T15:28:58;12.70;79.80
913;DHT22;443;51.448;7.028;2023-12-20T15:31:26;12.60;81.00
913;DHT22;443;51.448;7.028;2023-12-20T15:33:53;12.50;80.60
913;DHT22;443;51.448;7.028;2023-12-20T15:36:19;12.50;80.70
913;DHT22;443;51.448;7.028;2023-12-20T15:38:46;12.50;80.90
913;DHT22;443;51.448;7.028;2023-12-20T15:41:17;12.50;80.90
913;DHT22;443;51.448;7.028;2023-12-20T15:43:45;12.70;82.30
913;DHT22;443;51.448;7.028;2023-12-20T15:46:12;12.60;80.50
913;DHT22;443;51.448;7.028;2023-12-20T15:48:39;12.70;81.10
913;DHT22;443;51.448;7.028;2023-12-20T15:51:06;12.70;80.90
913;DHT22;443;51.448;7.028;2023-12-20T15:53:33;12.80;81.00
913;DHT22;443;51.448;7.028;2023-12-20T15:56:01;12.80;81.00
913;DHT22;443;51.448;7.028;2023-12-20T15:58:29;12.70;80.10
913;DHT22;443;51.448;7.028;2023-12-20T16:00:58;12.70;81.40
913;DHT22;443;51.448;7.028;2023-12-20T16:03:25;12.60;80.40
913;DHT22;443;51.448;7.028;2023-12-20T16:05:52;12.60;81.10
913;DHT22;443;51.448;7.028;2023-12-20T16:08:19;12.70;81.40
913;DHT22;443;51.448;7.028;2023-12-20T16:10:46;12.70;81.20
913;DHT22;443;51.448;7.028;2023-12-20T16:13:13;12.80;81.90
913;DHT22;443;51.448;7.028;2023-12-20T16:15:39;12.80;80.10
913;DHT22;443;51.448;7.028;2023-12-20T16:18:08;12.70;79.80
913;DHT22;443;51.448;7.028;2023-12-20T16:20:36;12.70;80.70
913;DHT22;443;51.448;7.028;2023-12-20T16:23:03;12.70;80.60
913;DHT22;443;51.448;7.028;2023-12-20T16:25:30;12.90;80.40
913;DHT22;443;51.448;7.028;2023-12-20T16:27:57;12.80;81.00
913;DHT22;443;51.448;7.028;2023-12-20T16:30:24;12.90;81.30
913;DHT22;443;51.448;7.028;2023-12-20T16:32:50;12.80;80.00
913;DHT22;443;51.448;7.028;2023-12-20T16:35:18;12.80;81.00
913;DHT22;443;51.448;7.028;2023-12-20T16:37:45;12.90;80.60
913;DHT22;443;51.448;7.028;2023-12-20T16:40:12;12.70;80.10